createdAt,value
2023-05-12T00:01:01.900Z,21.07
2023-05-12T00:03:30.188Z,15.30
2023-05-12T00:06:06.767Z,19.77
2023-05-12T00:08:34.851Z,18.37
2023-05-12T00:11:11.937Z,15.27
2023-05-12T00:13:40.433Z,15.07
2023-05-12T00:16:09.244Z,15.80
2023-05-12T00:18:37.922Z,15.80
2023-05-12T00:21:08.760Z,16.50
2023-05-12T00:23:36.976Z,15.63
2023-05-12T00:26:07.463Z,18.93
2023-05-12T00:28:36.288Z,17.07
2023-05-12T00:31:04.714Z,18.37
2023-05-12T00:33:33.677Z,17.33
2023-05-12T00:36:04.006Z,17.17
2023-05-12T00:38:34.251Z,19.20
2023-05-12T00:41:02.143Z,23.13
2023-05-12T00:43:30.302Z,22.27
2023-05-12T00:45:58.585Z,22.87
2023-05-12T00:48:27.119Z,24.53
2023-05-12T00:50:55.879Z,20.33
2023-05-12T00:53:24.531Z,21.50
2023-05-12T00:55:54.143Z,21.53
2023-05-12T00:58:22.186Z,24.50
2023-05-12T01:00:53.655Z,26.53
2023-05-12T01:03:24.839Z,20.03
2023-05-12T01:06:26.406Z,20.27
2023-05-12T01:08:54.966Z,22.07
2023-05-12T01:11:23.826Z,19.07
2023-05-12T01:13:52.722Z,26.27
2023-05-12T01:16:24.402Z,24.43
2023-05-12T01:18:55.735Z,23.37
2023-05-12T01:21:24.056Z,23.17
2023-05-12T01:23:59.902Z,22.93
2023-05-12T01:26:32.900Z,21.03
2023-05-12T01:29:05.141Z,19.47
2023-05-12T01:31:33.848Z,18.57
2023-05-12T01:34:01.835Z,17.10
2023-05-12T01:36:29.975Z,16.00
2023-05-12T01:39:00.702Z,22.03
2023-05-12T01:41:29.420Z,21.97
2023-05-12T01:43:59.224Z,22.50
2023-05-12T01:46:27.570Z,22.07
2023-05-12T01:48:55.869Z,21.00
2023-05-12T01:51:23.935Z,24.70
2023-05-12T01:53:52.020Z,20.03
2023-05-12T01:56:20.389Z,24.57
2023-05-12T01:58:48.970Z,21.07
2023-05-12T02:01:18.806Z,23.27
2023-05-12T02:03:46.982Z,23.40
2023-05-12T02:06:15.257Z,23.63
2023-05-12T02:08:43.528Z,25.67
2023-05-12T02:11:11.974Z,28.23
2023-05-12T02:13:40.439Z,29.17
2023-05-12T02:16:08.746Z,26.07
2023-05-12T02:18:40.082Z,29.13
2023-05-12T02:21:08.264Z,33.17
2023-05-12T02:23:36.759Z,28.70
2023-05-12T02:26:05.024Z,26.83
2023-05-12T02:28:33.745Z,28.57
2023-05-12T02:31:02.021Z,33.83
2023-05-12T02:33:30.632Z,31.03
2023-05-12T02:35:58.942Z,27.03
2023-05-12T02:38:27.988Z,29.90
2023-05-12T02:40:56.536Z,28.40
2023-05-12T02:43:24.795Z,27.40
2023-05-12T02:45:53.130Z,27.03
2023-05-12T02:48:21.686Z,30.60
2023-05-12T02:50:49.974Z,29.63
2023-05-12T02:53:18.074Z,25.63
2023-05-12T02:55:46.347Z,27.63
2023-05-12T02:58:14.587Z,27.00
2023-05-12T03:00:42.655Z,36.07
2023-05-12T03:03:10.961Z,26.60
2023-05-12T03:05:39.212Z,26.70
2023-05-12T03:08:07.836Z,29.73
2023-05-12T03:10:36.519Z,24.63
2023-05-12T03:13:04.533Z,23.97
2023-05-12T03:15:32.748Z,26.10
2023-05-12T03:18:00.920Z,30.67
2023-05-12T03:20:28.929Z,28.95
2023-05-12T03:22:57.088Z,32.63
2023-05-12T03:25:25.099Z,34.60
2023-05-12T03:27:53.534Z,34.63
2023-05-12T03:30:24.617Z,36.63
2023-05-12T03:32:52.804Z,34.95
2023-05-12T03:35:21.167Z,37.92
2023-05-12T03:37:49.160Z,39.13
2023-05-12T03:40:19.220Z,31.10
2023-05-12T03:42:47.451Z,43.60
2023-05-12T03:45:15.928Z,33.47
2023-05-12T03:47:44.614Z,31.35
2023-05-12T03:50:13.279Z,31.10
2023-05-12T03:52:41.955Z,32.40
2023-05-12T03:55:10.756Z,31.60
2023-05-12T03:57:38.852Z,29.27
2023-05-12T04:00:07.644Z,31.67
2023-05-12T04:02:36.598Z,29.88
2023-05-12T04:05:08.507Z,31.90
2023-05-12T04:07:38.927Z,31.42
2023-05-12T04:10:07.567Z,28.08
2023-05-12T04:12:35.632Z,29.23
2023-05-12T04:15:03.994Z,22.95
2023-05-12T04:17:32.865Z,28.45
2023-05-12T04:20:01.121Z,25.77
2023-05-12T04:22:31.966Z,39.95
2023-05-12T04:25:00.034Z,30.65
2023-05-12T04:27:30.913Z,23.92
2023-05-12T04:29:59.003Z,22.20
2023-05-12T04:32:26.910Z,20.95
2023-05-12T04:34:57.091Z,19.13
2023-05-12T04:37:25.023Z,18.90
2023-05-12T04:39:53.892Z,27.10
2023-05-12T04:42:21.955Z,15.40
2023-05-12T04:44:50.386Z,15.27
2023-05-12T04:47:18.717Z,17.42
2023-05-12T04:49:47.353Z,15.65
2023-05-12T04:52:15.832Z,14.60
2023-05-12T04:54:44.637Z,13.63
2023-05-12T04:57:12.564Z,17.27
2023-05-12T04:59:41.559Z,20.55
2023-05-12T05:02:12.143Z,14.23
2023-05-12T05:04:44.806Z,12.90
2023-05-12T05:07:13.030Z,18.08
2023-05-12T05:09:41.050Z,12.05
2023-05-12T05:12:09.327Z,12.10
2023-05-12T05:14:37.394Z,12.50
2023-05-12T05:17:08.524Z,14.05
2023-05-12T05:19:50.931Z,15.88
2023-05-12T05:22:23.774Z,17.98
2023-05-12T05:24:52.369Z,16.45
2023-05-12T05:27:21.249Z,14.98
2023-05-12T05:29:49.716Z,17.40
2023-05-12T05:32:17.699Z,17.67
2023-05-12T05:34:45.888Z,20.00
2023-05-12T05:37:14.040Z,13.65
2023-05-12T05:39:42.456Z,19.90
2023-05-12T05:42:12.316Z,14.73
2023-05-12T05:44:43.991Z,24.73
2023-05-12T05:47:14.593Z,20.20
2023-05-12T05:49:43.002Z,15.80
2023-05-12T05:52:11.137Z,17.63
2023-05-12T05:54:39.478Z,17.48
2023-05-12T05:57:10.151Z,21.58
2023-05-12T05:59:39.125Z,22.17
2023-05-12T06:02:07.626Z,21.60
2023-05-12T06:04:36.250Z,20.55
2023-05-12T06:07:07.234Z,26.67
2023-05-12T06:09:36.455Z,18.73
2023-05-12T06:12:04.967Z,21.23
2023-05-12T06:14:33.012Z,18.25
2023-05-12T06:17:01.309Z,20.70
2023-05-12T06:19:31.165Z,19.30
2023-05-12T06:21:59.803Z,19.17
2023-05-12T06:24:28.147Z,17.52
2023-05-12T06:26:56.817Z,22.50
2023-05-12T06:29:25.030Z,17.17
2023-05-12T06:31:54.326Z,19.75
2023-05-12T06:34:22.901Z,21.90
2023-05-12T06:36:52.130Z,17.20
2023-05-12T06:39:21.678Z,15.40
2023-05-12T06:41:49.991Z,16.83
2023-05-12T06:44:18.689Z,16.13
2023-05-12T06:46:46.953Z,17.30
2023-05-12T06:49:14.673Z,21.25
2023-05-12T06:51:43.122Z,19.48
2023-05-12T06:54:11.379Z,17.88
2023-05-12T06:56:39.427Z,12.27
2023-05-12T06:59:07.926Z,13.88
2023-05-12T07:01:37.102Z,18.38
2023-05-12T07:04:05.944Z,11.45
2023-05-12T07:06:35.837Z,8.38
2023-05-12T07:09:04.952Z,11.27
2023-05-12T07:11:33.554Z,9.50
2023-05-12T07:14:01.754Z,9.02
2023-05-12T07:16:30.267Z,6.93
2023-05-12T07:18:58.876Z,7.25
2023-05-12T07:21:27.780Z,8.33
2023-05-12T07:23:56.814Z,5.00
2023-05-12T07:26:24.832Z,9.50
2023-05-12T07:28:53.917Z,4.23
2023-05-12T07:31:22.488Z,4.17
2023-05-12T07:33:50.571Z,2.37
2023-05-12T07:36:21.322Z,8.27
2023-05-12T07:38:50.870Z,4.57
2023-05-12T07:41:19.347Z,5.90
2023-05-12T07:43:47.575Z,2.20
2023-05-12T07:46:15.632Z,2.27
2023-05-12T07:48:44.030Z,3.33
2023-05-12T07:51:12.119Z,3.13
2023-05-12T07:53:40.128Z,3.67
2023-05-12T07:56:08.854Z,5.40
2023-05-12T07:58:37.490Z,7.10
2023-05-12T08:01:07.184Z,12.70
2023-05-12T08:03:39.964Z,4.43
2023-05-12T08:06:08.303Z,6.07
2023-05-12T08:08:36.878Z,3.80
2023-05-12T08:11:05.191Z,4.37
2023-05-12T08:13:33.801Z,4.47
2023-05-12T08:16:01.718Z,5.20
2023-05-12T08:18:29.876Z,4.87
2023-05-12T08:20:58.879Z,3.10
2023-05-12T08:23:29.898Z,4.40
2023-05-12T08:25:59.342Z,3.63
2023-05-12T08:28:27.370Z,3.50
2023-05-12T08:30:55.269Z,2.80
2023-05-12T08:33:24.364Z,6.10
2023-05-12T08:35:52.627Z,6.93
2023-05-12T08:38:29.886Z,5.03
2023-05-12T08:41:07.268Z,6.70
2023-05-12T08:43:46.813Z,8.20
2023-05-12T08:46:15.806Z,5.50
2023-05-12T08:48:46.773Z,9.87
2023-05-12T08:51:14.941Z,8.90
2023-05-12T08:53:43.583Z,6.30
2023-05-12T08:58:46.809Z,7.47
2023-05-12T09:01:15.341Z,4.67
2023-05-12T09:03:45.723Z,9.03
2023-05-12T09:06:13.883Z,8.73
2023-05-12T09:08:42.241Z,9.83
2023-05-12T09:11:13.904Z,7.67
2023-05-12T09:13:56.002Z,9.67
2023-05-12T09:16:26.014Z,6.73
2023-05-12T09:18:55.361Z,9.63
2023-05-12T09:21:23.821Z,10.60
2023-05-12T09:23:55.910Z,14.37
2023-05-12T09:26:25.905Z,10.80
2023-05-12T09:28:56.666Z,6.63
2023-05-12T09:31:26.453Z,9.17
2023-05-12T09:33:54.642Z,8.23
2023-05-12T09:36:24.932Z,8.33
2023-05-12T09:39:07.708Z,6.53
2023-05-12T09:41:41.105Z,11.13
2023-05-12T09:44:10.570Z,4.93
2023-05-12T09:46:40.153Z,9.40
2023-05-12T09:49:09.769Z,8.30
2023-05-12T09:51:38.274Z,6.77
2023-05-12T09:54:09.481Z,5.33
2023-05-12T09:56:38.743Z,13.27
2023-05-12T09:59:07.271Z,7.03
2023-05-12T10:01:36.289Z,8.07
2023-05-12T10:04:05.952Z,6.53
2023-05-12T10:06:38.685Z,8.63
2023-05-12T10:09:28.447Z,8.33
2023-05-12T10:11:57.115Z,4.70
2023-05-12T10:14:25.385Z,8.93
2023-05-12T10:16:56.792Z,3.57
2023-05-12T10:19:27.614Z,8.00
2023-05-12T10:21:58.355Z,7.43
2023-05-12T10:24:28.056Z,5.67
2023-05-12T10:26:59.838Z,11.57
2023-05-12T10:29:30.293Z,8.37
2023-05-12T10:32:00.033Z,5.30
2023-05-12T10:34:34.498Z,5.93
2023-05-12T10:37:08.587Z,8.67
2023-05-12T10:39:38.473Z,5.53
2023-05-12T10:42:07.716Z,3.07
2023-05-12T10:44:37.044Z,5.37
2023-05-12T10:47:15.017Z,8.70
2023-05-12T10:49:43.636Z,14.47
2023-05-12T10:52:13.394Z,9.83
2023-05-12T10:54:45.901Z,8.63
2023-05-12T10:57:21.170Z,7.37
2023-05-12T10:59:54.833Z,4.57
2023-05-12T11:02:32.615Z,7.23
2023-05-12T11:05:05.203Z,5.73
2023-05-12T11:07:35.273Z,3.97
2023-05-12T11:10:06.499Z,6.30
2023-05-12T11:12:36.699Z,7.33
2023-05-12T11:15:07.241Z,7.23
2023-05-12T11:18:02.801Z,4.97
2023-05-12T11:20:31.293Z,2.70
2023-05-12T11:22:59.986Z,4.13
2023-05-12T11:25:28.748Z,3.83
2023-05-12T11:27:57.137Z,4.13
2023-05-12T11:30:26.661Z,5.03
2023-05-12T11:33:02.614Z,4.93
2023-05-12T11:35:32.602Z,4.27
2023-05-12T11:38:03.352Z,10.00
2023-05-12T11:40:31.626Z,8.03
2023-05-12T11:43:10.495Z,4.80
2023-05-12T11:45:38.617Z,7.60
2023-05-12T11:48:12.606Z,14.50
2023-05-12T11:50:48.118Z,2.80
2023-05-12T11:53:19.545Z,10.63
2023-05-12T11:55:53.402Z,6.00
2023-05-12T11:58:27.267Z,4.50
2023-05-12T12:00:55.918Z,4.67
2023-05-12T12:03:25.637Z,5.37
2023-05-12T12:06:04.828Z,10.30
2023-05-12T12:08:34.571Z,4.77
2023-05-12T12:11:04.713Z,4.13
2023-05-12T12:13:33.458Z,3.77
2023-05-12T12:16:01.586Z,2.90
2023-05-12T12:18:29.748Z,2.53
2023-05-12T12:20:58.435Z,3.17
2023-05-12T12:23:27.260Z,6.10
2023-05-12T12:25:58.598Z,10.27
2023-05-12T12:28:29.115Z,6.43
2023-05-12T12:30:57.565Z,4.27
2023-05-12T12:33:25.792Z,4.93
2023-05-12T12:35:54.115Z,2.37
2023-05-12T12:38:22.239Z,6.77
2023-05-12T12:40:50.311Z,3.80
2023-05-12T12:43:18.139Z,5.37
2023-05-12T12:45:46.717Z,3.30
2023-05-12T12:48:15.515Z,3.93
2023-05-12T12:50:43.771Z,6.67
2023-05-12T12:53:11.813Z,6.00
2023-05-12T12:55:39.921Z,8.50
2023-05-12T12:58:07.772Z,7.00
2023-05-12T13:00:37.690Z,4.37
2023-05-12T13:03:08.271Z,6.53
2023-05-12T13:05:37.159Z,4.40
2023-05-12T13:08:05.530Z,8.83
2023-05-12T13:10:33.696Z,2.83
2023-05-12T13:13:02.162Z,2.37
2023-05-12T13:15:32.728Z,4.43
2023-05-12T13:18:00.963Z,9.57
2023-05-12T13:20:29.480Z,10.47
2023-05-12T13:22:59.624Z,1.93
2023-05-12T13:25:27.667Z,6.10
2023-05-12T13:27:55.686Z,8.20
2023-05-12T13:30:25.366Z,2.80
2023-05-12T13:32:53.496Z,3.77
2023-05-12T13:35:21.954Z,4.23
2023-05-12T13:38:00.112Z,4.60
2023-05-12T13:40:28.478Z,6.13
2023-05-12T13:42:57.173Z,5.50
2023-05-12T13:45:26.106Z,9.33
2023-05-12T13:47:54.443Z,3.47
2023-05-12T13:50:23.079Z,2.27
2023-05-12T13:52:51.186Z,5.63
2023-05-12T13:55:21.757Z,2.40
2023-05-12T13:57:50.308Z,5.50
2023-05-12T14:00:19.164Z,2.70
2023-05-12T14:02:47.267Z,1.90
2023-05-12T14:05:16.275Z,3.87
2023-05-12T14:07:44.724Z,4.40
2023-05-12T14:10:12.993Z,1.60
2023-05-12T14:12:43.226Z,3.03
2023-05-12T14:17:48.202Z,3.80
2023-05-12T14:20:16.834Z,5.53
2023-05-12T14:22:45.787Z,4.07
2023-05-12T14:25:17.117Z,4.40
2023-05-12T14:27:45.780Z,7.50
2023-05-12T14:30:18.293Z,2.83
2023-05-12T14:32:46.255Z,4.77
2023-05-12T14:35:14.314Z,10.37
2023-05-12T14:37:42.609Z,2.93
2023-05-12T14:40:12.485Z,5.40
2023-05-12T14:42:40.844Z,2.00
2023-05-12T14:45:10.291Z,7.90
2023-05-12T14:47:42.012Z,2.40
2023-05-12T14:50:11.029Z,2.77
2023-05-12T14:52:39.337Z,5.20
2023-05-12T14:55:12.386Z,7.33
2023-05-12T14:57:41.511Z,6.87
2023-05-12T15:00:12.120Z,7.97
2023-05-12T15:02:41.790Z,10.13
2023-05-12T15:05:11.962Z,4.93
2023-05-12T15:07:40.260Z,5.03
2023-05-12T15:10:08.992Z,4.90
2023-05-12T15:12:38.996Z,4.40
2023-05-12T15:15:09.165Z,9.93
2023-05-12T15:17:39.043Z,4.10
2023-05-12T15:20:08.449Z,4.13
2023-05-12T15:22:37.303Z,8.00
2023-05-12T15:25:05.912Z,2.73
2023-05-12T15:27:34.224Z,9.77
2023-05-12T15:30:03.491Z,11.70
2023-05-12T15:32:32.416Z,4.10
2023-05-12T15:35:00.451Z,8.53
2023-05-12T15:37:28.886Z,10.07
2023-05-12T15:39:56.772Z,4.33
2023-05-12T15:42:29.977Z,6.00
2023-05-12T15:45:01.021Z,4.90
2023-05-12T15:47:29.787Z,5.30
2023-05-12T15:49:58.485Z,5.53
2023-05-12T15:52:28.754Z,3.27
2023-05-12T15:54:56.937Z,3.80
2023-05-12T15:57:25.197Z,3.20
2023-05-12T16:00:00.317Z,5.60
2023-05-12T16:02:29.506Z,5.53
2023-05-12T16:04:57.628Z,1.97
2023-05-12T16:07:32.000Z,2.13
2023-05-12T16:10:00.323Z,3.80
2023-05-12T16:12:28.714Z,9.80
2023-05-12T16:14:56.940Z,6.17
2023-05-12T16:17:28.135Z,6.40
2023-05-12T16:19:58.618Z,4.43
2023-05-12T16:22:26.823Z,9.40
2023-05-12T16:24:56.997Z,5.87
2023-05-12T16:27:25.575Z,2.73
2023-05-12T16:29:57.227Z,4.17
2023-05-12T16:32:25.357Z,4.53
2023-05-12T16:34:53.593Z,3.87
2023-05-12T16:37:23.169Z,4.87
2023-05-12T16:39:51.123Z,5.87
2023-05-12T16:42:19.425Z,3.93
2023-05-12T16:44:48.237Z,2.83
2023-05-12T16:47:19.838Z,7.43
2023-05-12T16:49:47.875Z,5.07
2023-05-12T16:52:16.153Z,7.00
2023-05-12T16:54:44.263Z,10.67
2023-05-12T16:57:12.294Z,12.97
2023-05-12T16:59:40.470Z,79.57
2023-05-12T17:02:08.926Z,6.00
2023-05-12T17:04:38.058Z,7.67
2023-05-12T17:07:06.436Z,15.73
2023-05-12T17:09:34.367Z,14.30
2023-05-12T17:12:05.383Z,15.23
2023-05-12T17:14:35.071Z,13.03
2023-05-12T17:17:03.405Z,27.13
2023-05-12T17:19:33.835Z,33.43
2023-05-12T17:22:02.105Z,22.83
2023-05-12T17:24:30.727Z,23.17
2023-05-12T17:26:59.927Z,21.20
2023-05-12T17:29:28.944Z,32.60
2023-05-12T17:31:57.827Z,23.03
2023-05-12T17:34:25.920Z,15.80
2023-05-12T17:36:56.321Z,40.17
2023-05-12T17:39:24.384Z,27.83
2023-05-12T17:41:52.623Z,22.67
2023-05-12T17:44:20.912Z,39.90
2023-05-12T17:46:49.626Z,29.80
2023-05-12T17:49:17.727Z,19.73
2023-05-12T17:51:50.273Z,19.23
2023-05-12T17:54:18.296Z,25.00
2023-05-12T17:56:47.803Z,16.13
2023-05-12T17:59:16.268Z,15.67
2023-05-12T18:01:44.421Z,13.63
2023-05-12T18:04:12.995Z,16.67
2023-05-12T18:06:41.606Z,20.20
2023-05-12T18:09:10.364Z,22.30
2023-05-12T18:11:38.679Z,29.27
2023-05-12T18:14:07.528Z,37.80
2023-05-12T18:16:38.295Z,21.30
2023-05-12T18:19:06.768Z,24.40
2023-05-12T18:21:35.853Z,39.40
2023-05-12T18:24:05.056Z,43.90
2023-05-12T18:26:33.138Z,69.87
2023-05-12T18:29:01.135Z,51.37
2023-05-12T18:31:29.791Z,26.87
2023-05-12T18:33:58.006Z,36.83
2023-05-12T18:36:26.041Z,50.70
2023-05-12T18:38:54.381Z,50.27
2023-05-12T18:41:23.613Z,54.47
2023-05-12T18:43:52.036Z,47.73
2023-05-12T18:46:22.938Z,29.03
2023-05-12T18:48:51.384Z,71.87
2023-05-12T18:51:19.554Z,31.10
2023-05-12T18:53:48.729Z,37.30
2023-05-12T18:56:17.310Z,20.13
2023-05-12T18:58:46.881Z,30.97
2023-05-12T19:01:15.034Z,21.00
2023-05-12T19:03:45.492Z,44.43
2023-05-12T19:06:13.943Z,25.47
2023-05-12T19:08:56.274Z,51.60
2023-05-12T19:11:24.950Z,32.10
2023-05-12T19:13:53.240Z,28.60
2023-05-12T19:16:24.091Z,48.50
2023-05-12T19:18:52.208Z,51.30
2023-05-12T19:21:20.484Z,63.70
2023-05-12T19:23:49.100Z,65.80
2023-05-12T19:26:17.403Z,43.63
2023-05-12T19:28:45.665Z,35.33
2023-05-12T19:31:14.229Z,20.03
2023-05-12T19:33:42.469Z,24.40
2023-05-12T19:36:11.794Z,26.93
2023-05-12T19:38:43.943Z,16.87
2023-05-12T19:41:12.254Z,21.40
2023-05-12T19:43:40.773Z,16.80
2023-05-12T19:46:09.316Z,15.60
2023-05-12T19:48:38.189Z,11.27
2023-05-12T19:51:06.437Z,32.77
2023-05-12T19:53:35.237Z,14.73
2023-05-12T19:56:03.717Z,28.80
2023-05-12T19:58:31.818Z,19.83
2023-05-12T20:01:00.166Z,13.80
2023-05-12T20:03:28.670Z,13.93
2023-05-12T20:05:56.971Z,28.13
2023-05-12T20:08:25.447Z,18.03
2023-05-12T20:10:53.738Z,17.00
2023-05-12T20:13:22.194Z,13.10
2023-05-12T20:15:50.886Z,14.03
2023-05-12T20:18:21.954Z,16.50
2023-05-12T20:20:50.319Z,22.57
2023-05-12T20:23:18.460Z,17.50
2023-05-12T20:25:47.320Z,19.13
2023-05-12T20:28:15.895Z,18.67
2023-05-12T20:30:47.246Z,15.20
2023-05-12T20:33:18.708Z,17.90
2023-05-12T20:35:47.596Z,16.63
2023-05-12T20:38:16.284Z,17.37
2023-05-12T20:40:44.638Z,39.30
2023-05-12T20:43:14.693Z,20.57
2023-05-12T20:45:43.051Z,19.37
2023-05-12T20:48:11.883Z,12.00
2023-05-12T20:50:40.566Z,17.07
2023-05-12T20:53:09.056Z,26.47
2023-05-12T20:55:37.103Z,15.57
2023-05-12T20:58:05.258Z,17.83
2023-05-12T21:00:33.941Z,13.83
2023-05-12T21:03:04.087Z,20.47
2023-05-12T21:05:32.752Z,15.77
2023-05-12T21:08:02.025Z,15.17
2023-05-12T21:10:32.589Z,22.10
2023-05-12T21:13:01.067Z,12.27
2023-05-12T21:15:29.638Z,20.60
2023-05-12T21:17:58.463Z,20.03
2023-05-12T21:20:26.475Z,10.87
2023-05-12T21:22:57.302Z,12.43
2023-05-12T21:25:25.609Z,15.53
2023-05-12T21:27:53.759Z,16.80
2023-05-12T21:30:22.116Z,11.87
2023-05-12T21:32:53.340Z,16.90
2023-05-12T21:35:21.102Z,19.37
2023-05-12T21:37:49.966Z,12.57
2023-05-12T21:40:17.973Z,12.17
2023-05-12T21:42:46.361Z,18.40
2023-05-12T21:45:15.599Z,21.47
2023-05-12T21:47:47.869Z,15.27
2023-05-12T21:50:17.061Z,18.43
2023-05-12T21:52:45.601Z,22.27
2023-05-12T21:55:15.158Z,20.93
2023-05-12T21:57:45.393Z,12.83
2023-05-12T22:00:20.517Z,13.93
2023-05-12T22:02:49.677Z,17.93
2023-05-12T22:05:18.068Z,10.87
2023-05-12T22:07:46.905Z,15.50
2023-05-12T22:10:24.167Z,13.80
2023-05-12T22:12:59.854Z,13.20
2023-05-12T22:15:31.136Z,18.83
2023-05-12T22:17:59.234Z,15.27
2023-05-12T22:20:30.408Z,16.40
2023-05-12T22:22:58.784Z,17.97
2023-05-12T22:25:26.829Z,17.47
2023-05-12T22:27:55.197Z,23.33
2023-05-12T22:30:32.156Z,15.40
2023-05-12T22:33:05.932Z,16.23
2023-05-12T22:35:43.746Z,12.23
2023-05-12T22:38:14.923Z,14.80
2023-05-12T22:40:46.804Z,14.63
2023-05-12T22:43:15.606Z,13.73
2023-05-12T22:45:51.518Z,15.40
2023-05-12T22:48:20.823Z,15.60
2023-05-12T22:50:54.512Z,19.27
2023-05-12T22:53:22.736Z,15.43
2023-05-12T22:55:50.783Z,19.90
2023-05-12T22:58:28.941Z,19.40
2023-05-12T23:00:56.667Z,22.90
2023-05-12T23:03:31.185Z,19.20
2023-05-12T23:06:19.882Z,20.90
2023-05-12T23:08:48.451Z,17.17
2023-05-12T23:11:16.605Z,19.63
2023-05-12T23:13:44.507Z,22.23
2023-05-12T23:16:12.950Z,20.20
2023-05-12T23:18:41.260Z,23.40
2023-05-12T23:21:09.456Z,21.67
2023-05-12T23:23:40.154Z,20.53
2023-05-12T23:26:08.301Z,20.70
2023-05-12T23:28:40.140Z,28.73
2023-05-12T23:31:11.097Z,18.73
2023-05-12T23:33:43.151Z,22.30
2023-05-12T23:36:15.473Z,15.40
2023-05-12T23:38:43.501Z,22.27
2023-05-12T23:41:11.723Z,19.43
2023-05-12T23:43:39.750Z,23.03
2023-05-12T23:46:07.821Z,19.60
2023-05-12T23:48:37.740Z,14.63
2023-05-12T23:51:06.459Z,18.13
2023-05-12T23:53:34.884Z,19.23
2023-05-12T23:56:02.833Z,14.33
2023-05-12T23:58:31.536Z,12.47
